Effie, Minnesota
Current Conditions -  °F | °C
As of 8:13 PM on Thursday 20 Nov 2014 (Local Time) from KFOZ Reporting Station
Clear Clear  
Wind Chill: -6°   Ceiling: Unl
Heat Index: -6°   Visibility: 10mi
Dew Point: -11°   Wind: 0mph
Humidity: 77%   Direction: NA
Pressure: 30.11"   Gusts: NA
Location:  47.84°N, 93.64°W
Report Text: KFOZ 210213Z AUTO 00000KT 10SM CLR M21/M24 A3011 RMK AO2
Loading
Personal Weather Stations






























Interactive Weather Map New forecast layout! Learn more

10-Day Weather Forecast

Advertisements
Track Severe Weather on mobile